sensor_id;sensor_type;location;lat;lon;timestamp;pressure;altitude;pressure_sealevel;temperature;humidity
11099;BME280;12223;42.650;23.364;2022-09-09T00:01:46;94863.88;;;16.52;100.00
11099;BME280;12223;42.650;23.364;2022-09-09T00:10:56;94869.00;;;16.58;100.00
11099;BME280;12223;42.650;23.364;2022-09-09T00:13:29;94869.44;;;16.77;100.00
11099;BME280;12223;42.650;23.364;2022-09-09T00:16:04;94878.78;;;16.74;100.00
11099;BME280;12223;42.650;23.364;2022-09-09T00:18:39;94877.13;;;16.68;100.00
11099;BME280;12223;42.650;23.364;2022-09-09T00:21:12;94876.53;;;16.61;100.00
11099;BME280;12223;42.650;23.364;2022-09-09T00:23:45;94880.53;;;16.64;100.00
11099;BME280;12223;42.650;23.364;2022-09-09T00:26:21;94870.31;;;16.56;100.00
11099;BME280;12223;42.650;23.364;2022-09-09T00:28:53;94839.25;;;16.39;100.00
11099;BME280;12223;42.650;23.364;2022-09-09T00:31:26;94844.53;;;16.34;100.00
11099;BME280;12223;42.650;23.364;2022-09-09T00:33:55;94846.38;;;16.34;100.00
11099;BME280;12223;42.650;23.364;2022-09-09T00:36:28;94847.59;;;16.48;100.00
11099;BME280;12223;42.650;23.364;2022-09-09T00:39:00;94828.19;;;16.26;100.00
11099;BME280;12223;42.650;23.364;2022-09-09T00:41:46;94846.09;;;16.30;100.00
11099;BME280;12223;42.650;23.364;2022-09-09T00:44:27;94834.34;;;16.31;100.00
11099;BME280;12223;42.650;23.364;2022-09-09T00:47:04;94816.72;;;16.25;100.00
11099;BME280;12223;42.650;23.364;2022-09-09T00:49:44;94813.59;;;16.33;100.00
11099;BME280;12223;42.650;23.364;2022-09-09T00:55:41;94820.38;;;16.46;100.00
11099;BME280;12223;42.650;23.364;2022-09-09T00:58:12;94818.66;;;16.30;100.00
11099;BME280;12223;42.650;23.364;2022-09-09T01:00:42;94788.69;;;16.18;100.00
11099;BME280;12223;42.650;23.364;2022-09-09T01:03:30;94799.22;;;16.34;100.00
11099;BME280;12223;42.650;23.364;2022-09-09T01:06:16;94802.34;;;16.26;100.00
11099;BME280;12223;42.650;23.364;2022-09-09T01:09:13;94816.66;;;16.47;100.00
11099;BME280;12223;42.650;23.364;2022-09-09T01:11:51;94829.63;;;16.38;100.00
11099;BME280;12223;42.650;23.364;2022-09-09T01:14:30;94846.09;;;16.30;100.00
11099;BME280;12223;42.650;23.364;2022-09-09T01:17:07;94843.47;;;16.35;100.00
11099;BME280;12223;42.650;23.364;2022-09-09T01:23:23;94855.31;;;16.18;100.00
11099;BME280;12223;42.650;23.364;2022-09-09T01:26:19;94851.44;;;16.03;100.00
11099;BME280;12223;42.650;23.364;2022-09-09T01:28:49;94844.84;;;16.11;100.00
11099;BME280;12223;42.650;23.364;2022-09-09T01:31:20;94791.56;;;15.84;100.00
11099;BME280;12223;42.650;23.364;2022-09-09T01:33:49;94818.56;;;15.93;100.00
11099;BME280;12223;42.650;23.364;2022-09-09T01:36:21;94805.97;;;15.88;100.00
11099;BME280;12223;42.650;23.364;2022-09-09T01:38:52;94814.34;;;15.97;100.00
11099;BME280;12223;42.650;23.364;2022-09-09T01:41:20;94830.53;;;16.17;100.00
11099;BME280;12223;42.650;23.364;2022-09-09T01:43:47;94828.47;;;15.97;100.00
11099;BME280;12223;42.650;23.364;2022-09-09T01:46:16;94827.84;;;15.90;100.00
11099;BME280;12223;42.650;23.364;2022-09-09T01:48:45;94822.16;;;15.82;100.00
11099;BME280;12223;42.650;23.364;2022-09-09T01:51:12;94807.88;;;15.66;100.00
11099;BME280;12223;42.650;23.364;2022-09-09T01:53:39;94797.63;;;15.53;100.00
11099;BME280;12223;42.650;23.364;2022-09-09T01:56:29;94808.94;;;15.65;100.00
11099;BME280;12223;42.650;23.364;2022-09-09T01:59:12;94814.63;;;15.74;100.00
11099;BME280;12223;42.650;23.364;2022-09-09T02:01:55;94819.69;;;15.75;100.00
11099;BME280;12223;42.650;23.364;2022-09-09T02:04:35;94822.06;;;15.72;100.00
11099;BME280;12223;42.650;23.364;2022-09-09T02:07:06;94820.78;;;15.74;100.00
11099;BME280;12223;42.650;23.364;2022-09-09T02:09:40;94821.50;;;15.69;100.00
11099;BME280;12223;42.650;23.364;2022-09-09T02:12:13;94821.06;;;15.56;100.00
11099;BME280;12223;42.650;23.364;2022-09-09T02:14:42;94826.19;;;15.62;100.00
11099;BME280;12223;42.650;23.364;2022-09-09T02:17:19;94813.75;;;15.68;100.00
11099;BME280;12223;42.650;23.364;2022-09-09T02:19:53;94792.88;;;15.55;100.00
11099;BME280;12223;42.650;23.364;2022-09-09T02:22:26;94761.84;;;15.22;100.00
11099;BME280;12223;42.650;23.364;2022-09-09T02:24:56;94756.56;;;15.27;100.00
11099;BME280;12223;42.650;23.364;2022-09-09T02:27:27;94776.38;;;15.14;100.00
11099;BME280;12223;42.650;23.364;2022-09-09T02:29:56;94764.78;;;15.25;100.00
11099;BME280;12223;42.650;23.364;2022-09-09T02:32:28;94780.09;;;15.35;100.00
11099;BME280;12223;42.650;23.364;2022-09-09T02:34:59;94789.00;;;15.46;100.00
11099;BME280;12223;42.650;23.364;2022-09-09T02:37:31;94801.00;;;15.48;100.00
11099;BME280;12223;42.650;23.364;2022-09-09T02:39:58;94806.97;;;15.55;100.00
11099;BME280;12223;42.650;23.364;2022-09-09T02:42:27;94802.59;;;15.49;100.00
11099;BME280;12223;42.650;23.364;2022-09-09T02:44:54;94798.00;;;15.61;100.00
11099;BME280;12223;42.650;23.364;2022-09-09T02:47:26;94799.00;;;15.55;100.00
11099;BME280;12223;42.650;23.364;2022-09-09T02:50:02;94814.31;;;15.48;100.00
11099;BME280;12223;42.650;23.364;2022-09-09T02:52:38;94831.41;;;15.52;100.00
11099;BME280;12223;42.650;23.364;2022-09-09T02:55:16;94841.03;;;15.37;100.00
11099;BME280;12223;42.650;23.364;2022-09-09T02:57:48;94829.59;;;15.36;100.00
11099;BME280;12223;42.650;23.364;2022-09-09T03:00:23;94822.78;;;15.23;100.00
11099;BME280;12223;42.650;23.364;2022-09-09T03:02:50;94824.31;;;15.19;100.00
11099;BME280;12223;42.650;23.364;2022-09-09T03:05:18;94818.88;;;15.09;100.00
11099;BME280;12223;42.650;23.364;2022-09-09T03:07:45;94819.75;;;15.15;100.00
11099;BME280;12223;42.650;23.364;2022-09-09T03:10:12;94816.84;;;15.16;100.00
11099;BME280;12223;42.650;23.364;2022-09-09T03:12:39;94809.34;;;15.13;100.00
11099;BME280;12223;42.650;23.364;2022-09-09T03:15:09;94817.66;;;15.17;100.00
11099;BME280;12223;42.650;23.364;2022-09-09T03:17:36;94815.28;;;15.20;100.00
11099;BME280;12223;42.650;23.364;2022-09-09T03:23:25;94800.50;;;15.08;100.00
11099;BME280;12223;42.650;23.364;2022-09-09T03:25:52;94797.84;;;15.08;100.00
11099;BME280;12223;42.650;23.364;2022-09-09T03:28:24;94794.69;;;15.11;100.00
11099;BME280;12223;42.650;23.364;2022-09-09T03:30:59;94796.28;;;15.12;100.00
11099;BME280;12223;42.650;23.364;2022-09-09T03:33:27;94800.59;;;14.96;100.00
11099;BME280;12223;42.650;23.364;2022-09-09T03:35:55;94794.19;;;14.92;100.00
11099;BME280;12223;42.650;23.364;2022-09-09T03:38:22;94795.13;;;15.03;100.00
11099;BME280;12223;42.650;23.364;2022-09-09T03:40:50;94794.38;;;15.07;100.00
11099;BME280;12223;42.650;23.364;2022-09-09T03:43:20;94795.59;;;15.00;100.00
11099;BME280;12223;42.650;23.364;2022-09-09T03:45:47;94784.59;;;14.91;100.00
11099;BME280;12223;42.650;23.364;2022-09-09T03:48:17;94773.31;;;14.84;100.00
11099;BME280;12223;42.650;23.364;2022-09-09T03:50:45;94763.56;;;14.89;100.00
11099;BME280;12223;42.650;23.364;2022-09-09T03:53:12;94776.50;;;15.03;100.00
11099;BME280;12223;42.650;23.364;2022-09-09T03:55:39;94793.88;;;15.10;100.00
11099;BME280;12223;42.650;23.364;2022-09-09T03:58:09;94803.22;;;15.13;100.00
11099;BME280;12223;42.650;23.364;2022-09-09T04:00:36;94809.09;;;15.15;100.00
11099;BME280;12223;42.650;23.364;2022-09-09T04:03:10;94810.25;;;15.24;100.00
11099;BME280;12223;42.650;23.364;2022-09-09T04:05:40;94815.97;;;15.33;100.00
11099;BME280;12223;42.650;23.364;2022-09-09T04:08:07;94814.78;;;15.45;100.00
11099;BME280;12223;42.650;23.364;2022-09-09T04:10:34;94815.03;;;15.44;100.00
11099;BME280;12223;42.650;23.364;2022-09-09T04:13:02;94821.38;;;15.59;100.00
11099;BME280;12223;42.650;23.364;2022-09-09T04:15:29;94827.47;;;15.55;100.00
11099;BME280;12223;42.650;23.364;2022-09-09T04:17:56;94834.00;;;15.69;100.00
11099;BME280;12223;42.650;23.364;2022-09-09T04:20:23;94850.06;;;16.01;100.00
11099;BME280;12223;42.650;23.364;2022-09-09T04:22:51;94890.50;;;16.46;100.00
11099;BME280;12223;42.650;23.364;2022-09-09T04:25:20;94897.81;;;16.88;100.00
11099;BME280;12223;42.650;23.364;2022-09-09T04:27:47;94903.50;;;17.39;100.00
11099;BME280;12223;42.650;23.364;2022-09-09T04:30:17;94919.84;;;17.94;100.00
11099;BME280;12223;42.650;23.364;2022-09-09T04:32:44;94936.88;;;18.66;100.00
11099;BME280;12223;42.650;23.364;2022-09-09T04:35:11;94924.84;;;19.29;100.00
11099;BME280;12223;42.650;23.364;2022-09-09T04:37:37;94937.25;;;20.20;100.00
11099;BME280;12223;42.650;23.364;2022-09-09T04:40:07;94936.78;;;21.01;100.00
11099;BME280;12223;42.650;23.364;2022-09-09T04:42:35;94946.06;;;21.76;100.00
11099;BME280;12223;42.650;23.364;2022-09-09T04:45:02;94959.03;;;22.45;89.38
11099;BME280;12223;42.650;23.364;2022-09-09T04:47:29;94968.59;;;22.33;86.33
11099;BME280;12223;42.650;23.364;2022-09-09T04:49:56;94959.44;;;21.86;86.62
11099;BME280;12223;42.650;23.364;2022-09-09T04:52:23;94947.16;;;21.12;88.60
11099;BME280;12223;42.650;23.364;2022-09-09T04:54:50;94939.91;;;20.35;96.38
11099;BME280;12223;42.650;23.364;2022-09-09T04:57:20;94917.97;;;20.13;100.00
11099;BME280;12223;42.650;23.364;2022-09-09T04:59:47;94931.53;;;20.85;100.00
11099;BME280;12223;42.650;23.364;2022-09-09T05:02:14;94923.50;;;21.77;96.19
11099;BME280;12223;42.650;23.364;2022-09-09T05:04:41;94916.47;;;22.66;87.24
11099;BME280;12223;42.650;23.364;2022-09-09T05:07:08;94932.94;;;23.53;78.44
11099;BME280;12223;42.650;23.364;2022-09-09T05:09:35;94926.31;;;24.05;70.58
11099;BME280;12223;42.650;23.364;2022-09-09T05:12:02;94914.31;;;24.53;67.79
11099;BME280;12223;42.650;23.364;2022-09-09T05:17:52;94919.53;;;24.22;64.76
11099;BME280;12223;42.650;23.364;2022-09-09T05:20:23;94929.31;;;24.81;63.56
11099;BME280;12223;42.650;23.364;2022-09-09T05:22:52;94925.13;;;25.55;58.43
11099;BME280;12223;42.650;23.364;2022-09-09T05:25:20;94920.19;;;26.19;53.44
11099;BME280;12223;42.650;23.364;2022-09-09T05:27:47;94917.16;;;26.60;53.01
11099;BME280;12223;42.650;23.364;2022-09-09T05:30:15;94917.13;;;27.72;48.93
11099;BME280;12223;42.650;23.364;2022-09-09T05:32:44;94917.09;;;29.07;45.92
11099;BME280;12223;42.650;23.364;2022-09-09T05:35:15;94919.31;;;29.79;42.31
11099;BME280;12223;42.650;23.364;2022-09-09T05:37:43;94913.41;;;30.59;39.17
11099;BME280;12223;42.650;23.364;2022-09-09T05:40:11;94926.91;;;31.32;38.22
11099;BME280;12223;42.650;23.364;2022-09-09T05:42:47;94918.78;;;32.85;35.38
11099;BME280;12223;42.650;23.364;2022-09-09T05:45:14;94928.34;;;34.29;32.91
11099;BME280;12223;42.650;23.364;2022-09-09T05:47:41;94932.84;;;34.41;30.84
11099;BME280;12223;42.650;23.364;2022-09-09T05:50:08;94928.16;;;34.91;29.95
11099;BME280;12223;42.650;23.364;2022-09-09T05:52:36;94947.00;;;35.48;29.70
11099;BME280;12223;42.650;23.364;2022-09-09T05:55:04;94939.19;;;35.51;29.88
11099;BME280;12223;42.650;23.364;2022-09-09T05:57:31;94936.69;;;35.12;29.00
11099;BME280;12223;42.650;23.364;2022-09-09T05:59:57;94935.25;;;35.81;28.07
11099;BME280;12223;42.650;23.364;2022-09-09T06:02:24;94937.78;;;36.01;27.40
11099;BME280;12223;42.650;23.364;2022-09-09T06:04:51;94942.22;;;36.09;27.64
11099;BME280;12223;42.650;23.364;2022-09-09T06:07:18;94950.03;;;36.07;27.78
11099;BME280;12223;42.650;23.364;2022-09-09T06:09:46;94958.38;;;36.54;26.92
11099;BME280;12223;42.650;23.364;2022-09-09T06:12:13;94959.53;;;36.53;26.97
11099;BME280;12223;42.650;23.364;2022-09-09T06:14:40;94957.34;;;35.59;27.35
11099;BME280;12223;42.650;23.364;2022-09-09T06:17:07;94956.06;;;34.70;28.11
11099;BME280;12223;42.650;23.364;2022-09-09T06:19:34;94951.00;;;34.98;28.46
11099;BME280;12223;42.650;23.364;2022-09-09T06:22:00;94948.13;;;34.88;28.56
11099;BME280;12223;42.650;23.364;2022-09-09T06:24:31;94943.50;;;34.46;29.19
11099;BME280;12223;42.650;23.364;2022-09-09T06:26:59;94950.78;;;33.55;30.39
11099;BME280;12223;42.650;23.364;2022-09-09T06:29:26;94951.97;;;32.52;31.66
11099;BME280;12223;42.650;23.364;2022-09-09T06:31:53;94956.34;;;31.38;32.86
11099;BME280;12223;42.650;23.364;2022-09-09T06:34:19;94948.25;;;30.29;35.43
11099;BME280;12223;42.650;23.364;2022-09-09T06:36:46;94932.25;;;28.96;38.12
11099;BME280;12223;42.650;23.364;2022-09-09T06:39:13;94943.75;;;27.87;40.63
11099;BME280;12223;42.650;23.364;2022-09-09T06:41:41;94938.88;;;27.20;41.55
11099;BME280;12223;42.650;23.364;2022-09-09T06:44:10;94935.13;;;26.56;44.38
11099;BME280;12223;42.650;23.364;2022-09-09T06:46:38;94934.00;;;25.25;48.18
11099;BME280;12223;42.650;23.364;2022-09-09T06:49:05;94932.81;;;25.17;50.63
11099;BME280;12223;42.650;23.364;2022-09-09T06:51:34;94938.72;;;25.19;51.13
11099;BME280;12223;42.650;23.364;2022-09-09T06:54:03;94942.97;;;24.62;51.20
11099;BME280;12223;42.650;23.364;2022-09-09T06:56:31;94943.63;;;24.95;51.47
11099;BME280;12223;42.650;23.364;2022-09-09T06:59:00;94953.34;;;25.18;49.79
11099;BME280;12223;42.650;23.364;2022-09-09T07:01:30;94954.34;;;25.22;49.18
11099;BME280;12223;42.650;23.364;2022-09-09T07:04:00;94960.13;;;25.52;48.65
11099;BME280;12223;42.650;23.364;2022-09-09T07:06:36;94948.69;;;25.33;49.34
11099;BME280;12223;42.650;23.364;2022-09-09T07:09:05;94949.63;;;25.28;50.25
11099;BME280;12223;42.650;23.364;2022-09-09T07:11:34;94956.66;;;25.38;50.56
11099;BME280;12223;42.650;23.364;2022-09-09T07:14:01;94958.09;;;25.35;50.48
11099;BME280;12223;42.650;23.364;2022-09-09T07:16:31;94948.78;;;25.50;50.50
11099;BME280;12223;42.650;23.364;2022-09-09T07:18:58;94941.75;;;25.62;50.22
11099;BME280;12223;42.650;23.364;2022-09-09T07:21:27;94933.75;;;25.80;49.00
11099;BME280;12223;42.650;23.364;2022-09-09T07:23:54;94944.41;;;26.16;47.50
11099;BME280;12223;42.650;23.364;2022-09-09T07:26:23;94945.91;;;26.30;46.34
11099;BME280;12223;42.650;23.364;2022-09-09T07:28:50;94943.09;;;26.13;44.94
11099;BME280;12223;42.650;23.364;2022-09-09T07:31:19;94936.41;;;26.11;45.39
11099;BME280;12223;42.650;23.364;2022-09-09T07:33:47;94940.25;;;26.10;45.67
11099;BME280;12223;42.650;23.364;2022-09-09T07:36:15;94931.47;;;25.73;45.77
11099;BME280;12223;42.650;23.364;2022-09-09T07:38:44;94930.19;;;25.71;45.95
11099;BME280;12223;42.650;23.364;2022-09-09T07:41:13;94929.97;;;25.58;46.33
11099;BME280;12223;42.650;23.364;2022-09-09T07:43:43;94918.81;;;25.38;47.90
11099;BME280;12223;42.650;23.364;2022-09-09T07:46:11;94935.31;;;25.28;47.26
11099;BME280;12223;42.650;23.364;2022-09-09T07:48:39;94944.16;;;25.64;47.16
11099;BME280;12223;42.650;23.364;2022-09-09T07:51:12;94954.38;;;26.07;45.77
11099;BME280;12223;42.650;23.364;2022-09-09T07:53:42;94938.91;;;26.38;45.43
11099;BME280;12223;42.650;23.364;2022-09-09T07:56:11;94934.97;;;26.53;44.29
11099;BME280;12223;42.650;23.364;2022-09-09T07:58:39;94936.44;;;26.19;45.33
11099;BME280;12223;42.650;23.364;2022-09-09T08:01:08;94934.09;;;26.26;45.24
11099;BME280;12223;42.650;23.364;2022-09-09T08:03:35;94927.84;;;25.78;46.04
11099;BME280;12223;42.650;23.364;2022-09-09T08:06:03;94930.47;;;25.69;46.19
11099;BME280;12223;42.650;23.364;2022-09-09T08:08:33;94918.34;;;25.58;46.40
11099;BME280;12223;42.650;23.364;2022-09-09T08:11:04;94939.19;;;25.35;46.73
11099;BME280;12223;42.650;23.364;2022-09-09T08:13:33;94937.56;;;25.34;47.20
11099;BME280;12223;42.650;23.364;2022-09-09T08:16:05;94938.59;;;25.24;48.00
11099;BME280;12223;42.650;23.364;2022-09-09T08:18:32;94939.66;;;25.37;47.02
11099;BME280;12223;42.650;23.364;2022-09-09T08:21:05;94939.97;;;25.13;47.20
11099;BME280;12223;42.650;23.364;2022-09-09T08:23:35;94936.66;;;25.39;47.22
11099;BME280;12223;42.650;23.364;2022-09-09T08:26:04;94926.84;;;25.74;46.19
11099;BME280;12223;42.650;23.364;2022-09-09T08:28:31;94937.44;;;25.61;45.57
11099;BME280;12223;42.650;23.364;2022-09-09T08:31:05;94931.81;;;25.80;46.07
11099;BME280;12223;42.650;23.364;2022-09-09T08:33:32;94933.59;;;25.85;45.53
11099;BME280;12223;42.650;23.364;2022-09-09T08:35:59;94934.72;;;25.61;45.92
11099;BME280;12223;42.650;23.364;2022-09-09T08:38:26;94925.72;;;25.66;46.47
11099;BME280;12223;42.650;23.364;2022-09-09T08:41:02;94929.50;;;25.96;46.03
11099;BME280;12223;42.650;23.364;2022-09-09T08:43:33;94930.03;;;26.46;44.69
11099;BME280;12223;42.650;23.364;2022-09-09T08:46:04;94928.53;;;27.14;43.52
11099;BME280;12223;42.650;23.364;2022-09-09T08:48:44;94924.97;;;26.88;43.16
11099;BME280;12223;42.650;23.364;2022-09-09T08:51:13;94922.47;;;27.17;42.60
11099;BME280;12223;42.650;23.364;2022-09-09T08:53:42;94926.75;;;27.35;41.92
11099;BME280;12223;42.650;23.364;2022-09-09T08:56:14;94906.66;;;27.36;42.02
11099;BME280;12223;42.650;23.364;2022-09-09T08:58:45;94917.81;;;27.60;42.05
11099;BME280;12223;42.650;23.364;2022-09-09T09:01:29;94923.78;;;27.92;41.68
11099;BME280;12223;42.650;23.364;2022-09-09T09:04:03;94914.00;;;27.99;41.94
11099;BME280;12223;42.650;23.364;2022-09-09T09:06:42;94923.47;;;27.93;41.59
11099;BME280;12223;42.650;23.364;2022-09-09T09:09:17;94921.03;;;28.00;40.95
11099;BME280;12223;42.650;23.364;2022-09-09T09:11:51;94925.16;;;28.07;40.76
11099;BME280;12223;42.650;23.364;2022-09-09T09:14:21;94917.25;;;27.93;41.42
11099;BME280;12223;42.650;23.364;2022-09-09T09:16:51;94916.53;;;28.05;41.74
11099;BME280;12223;42.650;23.364;2022-09-09T09:19:19;94910.03;;;27.97;42.26
11099;BME280;12223;42.650;23.364;2022-09-09T09:21:50;94922.09;;;28.08;41.93
11099;BME280;12223;42.650;23.364;2022-09-09T09:24:20;94908.78;;;27.86;41.42
11099;BME280;12223;42.650;23.364;2022-09-09T09:26:51;94906.78;;;28.12;40.62
11099;BME280;12223;42.650;23.364;2022-09-09T09:29:19;94913.66;;;28.10;41.10
11099;BME280;12223;42.650;23.364;2022-09-09T09:31:50;94917.53;;;28.38;40.96
11099;BME280;12223;42.650;23.364;2022-09-09T09:34:17;94920.34;;;28.50;40.55
11099;BME280;12223;42.650;23.364;2022-09-09T09:36:52;94918.91;;;28.73;40.62
11099;BME280;12223;42.650;23.364;2022-09-09T09:39:23;94915.56;;;28.97;39.72
11099;BME280;12223;42.650;23.364;2022-09-09T09:41:52;94910.72;;;29.24;38.36
11099;BME280;12223;42.650;23.364;2022-09-09T09:44:23;94904.25;;;29.49;37.88
11099;BME280;12223;42.650;23.364;2022-09-09T09:46:51;94897.69;;;29.50;37.60
11099;BME280;12223;42.650;23.364;2022-09-09T09:49:18;94897.25;;;29.60;38.08
11099;BME280;12223;42.650;23.364;2022-09-09T09:51:46;94888.38;;;29.84;38.20
11099;BME280;12223;42.650;23.364;2022-09-09T09:54:18;94888.69;;;29.82;37.57
11099;BME280;12223;42.650;23.364;2022-09-09T09:56:48;94884.84;;;29.17;38.51
11099;BME280;12223;42.650;23.364;2022-09-09T09:59:33;94874.56;;;29.23;38.95
11099;BME280;12223;42.650;23.364;2022-09-09T10:05:16;94878.13;;;29.81;39.38
11099;BME280;12223;42.650;23.364;2022-09-09T10:07:44;94883.41;;;29.98;38.49
11099;BME280;12223;42.650;23.364;2022-09-09T10:10:15;94882.19;;;30.20;37.54
11099;BME280;12223;42.650;23.364;2022-09-09T10:12:53;94873.09;;;30.16;36.82
11099;BME280;12223;42.650;23.364;2022-09-09T10:15:37;94892.41;;;30.47;36.21
11099;BME280;12223;42.650;23.364;2022-09-09T10:18:25;94893.53;;;30.46;36.55
11099;BME280;12223;42.650;23.364;2022-09-09T10:21:06;94899.19;;;30.29;36.81
11099;BME280;12223;42.650;23.364;2022-09-09T10:23:49;94897.16;;;30.26;37.04
11099;BME280;12223;42.650;23.364;2022-09-09T10:26:32;94896.94;;;30.19;37.19
11099;BME280;12223;42.650;23.364;2022-09-09T10:32:07;94900.63;;;29.45;38.24
11099;BME280;12223;42.650;23.364;2022-09-09T10:34:51;94898.97;;;28.90;39.26
11099;BME280;12223;42.650;23.364;2022-09-09T10:37:32;94902.72;;;28.56;39.90
11099;BME280;12223;42.650;23.364;2022-09-09T10:40:14;94895.97;;;28.62;40.09
11099;BME280;12223;42.650;23.364;2022-09-09T10:42:46;94896.41;;;28.14;40.78
11099;BME280;12223;42.650;23.364;2022-09-09T10:45:17;94902.88;;;27.84;41.52
11099;BME280;12223;42.650;23.364;2022-09-09T10:48:00;94906.00;;;27.56;42.45
11099;BME280;12223;42.650;23.364;2022-09-09T10:50:45;94905.69;;;27.41;42.66
11099;BME280;12223;42.650;23.364;2022-09-09T10:53:23;94895.91;;;27.66;42.70
11099;BME280;12223;42.650;23.364;2022-09-09T10:55:56;94905.25;;;27.94;43.13
11099;BME280;12223;42.650;23.364;2022-09-09T10:58:30;94897.53;;;27.67;42.74
11099;BME280;12223;42.650;23.364;2022-09-09T11:01:06;94900.91;;;27.55;43.30
11099;BME280;12223;42.650;23.364;2022-09-09T11:03:39;94898.22;;;27.29;43.57
11099;BME280;12223;42.650;23.364;2022-09-09T11:06:13;94899.19;;;27.07;45.11
11099;BME280;12223;42.650;23.364;2022-09-09T11:08:42;94893.22;;;26.62;46.37
11099;BME280;12223;42.650;23.364;2022-09-09T11:11:12;94891.38;;;26.89;46.13
11099;BME280;12223;42.650;23.364;2022-09-09T11:13:45;94890.69;;;26.83;45.56
11099;BME280;12223;42.650;23.364;2022-09-09T11:16:23;94899.81;;;27.21;45.82
11099;BME280;12223;42.650;23.364;2022-09-09T11:18:55;94895.19;;;27.31;45.25
11099;BME280;12223;42.650;23.364;2022-09-09T11:21:32;94891.97;;;27.37;44.66
11099;BME280;12223;42.650;23.364;2022-09-09T11:24:05;94887.66;;;27.53;44.17
11099;BME280;12223;42.650;23.364;2022-09-09T11:26:38;94884.38;;;27.77;44.21
11099;BME280;12223;42.650;23.364;2022-09-09T11:32:20;94871.00;;;28.10;43.14
11099;BME280;12223;42.650;23.364;2022-09-09T11:34:59;94862.94;;;28.31;42.74
11099;BME280;12223;42.650;23.364;2022-09-09T11:38:06;94855.72;;;28.35;43.64
11099;BME280;12223;42.650;23.364;2022-09-09T11:40:43;94841.03;;;27.98;45.29
11099;BME280;12223;42.650;23.364;2022-09-09T11:43:19;94857.13;;;27.74;44.57
11099;BME280;12223;42.650;23.364;2022-09-09T11:45:51;94852.22;;;27.58;45.44
11099;BME280;12223;42.650;23.364;2022-09-09T11:48:27;94849.03;;;27.56;46.75
11099;BME280;12223;42.650;23.364;2022-09-09T11:51:00;94830.41;;;27.38;46.91
11099;BME280;12223;42.650;23.364;2022-09-09T11:53:30;94817.81;;;27.25;46.23
11099;BME280;12223;42.650;23.364;2022-09-09T11:56:09;94804.78;;;27.01;46.96
11099;BME280;12223;42.650;23.364;2022-09-09T11:58:39;94800.16;;;26.84;47.62
11099;BME280;12223;42.650;23.364;2022-09-09T12:01:15;94800.81;;;26.90;47.95
11099;BME280;12223;42.650;23.364;2022-09-09T12:03:45;94816.75;;;27.00;48.47
11099;BME280;12223;42.650;23.364;2022-09-09T12:06:19;94809.88;;;27.11;49.41
11099;BME280;12223;42.650;23.364;2022-09-09T12:08:50;94830.28;;;27.17;47.99
11099;BME280;12223;42.650;23.364;2022-09-09T12:11:25;94813.47;;;27.32;47.55
11099;BME280;12223;42.650;23.364;2022-09-09T12:13:53;94815.50;;;27.61;46.79
11099;BME280;12223;42.650;23.364;2022-09-09T12:16:31;94804.97;;;27.51;47.10
11099;BME280;12223;42.650;23.364;2022-09-09T12:19:06;94788.16;;;27.19;47.40
11099;BME280;12223;42.650;23.364;2022-09-09T12:21:39;94799.66;;;27.25;47.79
11099;BME280;12223;42.650;23.364;2022-09-09T12:24:13;94798.75;;;27.50;48.85
11099;BME280;12223;42.650;23.364;2022-09-09T12:26:47;94805.75;;;27.60;46.84
11099;BME280;12223;42.650;23.364;2022-09-09T12:29:24;94796.88;;;27.42;47.70
11099;BME280;12223;42.650;23.364;2022-09-09T12:32:00;94792.63;;;27.15;48.30
11099;BME280;12223;42.650;23.364;2022-09-09T12:34:40;94782.97;;;26.89;48.49
11099;BME280;12223;42.650;23.364;2022-09-09T12:37:18;94781.97;;;27.10;48.34
11099;BME280;12223;42.650;23.364;2022-09-09T12:39:52;94769.03;;;27.25;47.88
11099;BME280;12223;42.650;23.364;2022-09-09T12:42:23;94774.69;;;27.40;47.49
11099;BME280;12223;42.650;23.364;2022-09-09T12:44:51;94764.78;;;27.44;47.38
11099;BME280;12223;42.650;23.364;2022-09-09T12:47:21;94764.63;;;27.49;47.11
11099;BME280;12223;42.650;23.364;2022-09-09T12:49:49;94782.75;;;27.66;47.48
11099;BME280;12223;42.650;23.364;2022-09-09T12:52:24;94777.00;;;27.97;47.58
11099;BME280;12223;42.650;23.364;2022-09-09T12:54:52;94773.22;;;28.19;46.00
11099;BME280;12223;42.650;23.364;2022-09-09T12:57:19;94766.81;;;28.44;45.94
11099;BME280;12223;42.650;23.364;2022-09-09T12:59:50;94766.22;;;28.71;45.15
11099;BME280;12223;42.650;23.364;2022-09-09T13:02:19;94760.72;;;29.01;43.65
11099;BME280;12223;42.650;23.364;2022-09-09T13:04:46;94751.56;;;29.17;42.96
11099;BME280;12223;42.650;23.364;2022-09-09T13:07:16;94753.34;;;29.01;43.86
11099;BME280;12223;42.650;23.364;2022-09-09T13:09:47;94750.72;;;28.93;43.80
11099;BME280;12223;42.650;23.364;2022-09-09T13:12:19;94744.72;;;28.99;43.15
11099;BME280;12223;42.650;23.364;2022-09-09T13:14:48;94748.59;;;29.10;42.78
11099;BME280;12223;42.650;23.364;2022-09-09T13:17:20;94747.03;;;29.22;43.15
11099;BME280;12223;42.650;23.364;2022-09-09T13:19:53;94745.38;;;28.96;43.93
11099;BME280;12223;42.650;23.364;2022-09-09T13:22:26;94599.50;;;27.69;44.96
11099;BME280;12223;42.650;23.364;2022-09-09T13:25:17;94735.97;;;28.61;46.81
11099;BME280;12223;42.650;23.364;2022-09-09T13:27:53;94728.84;;;28.35;46.46
11099;BME280;12223;42.650;23.364;2022-09-09T13:30:22;94726.25;;;28.39;46.02
11099;BME280;12223;42.650;23.364;2022-09-09T13:33:03;94730.56;;;28.19;46.63
11099;BME280;12223;42.650;23.364;2022-09-09T13:35:31;94721.16;;;28.37;48.13
11099;BME280;12223;42.650;23.364;2022-09-09T13:37:59;94713.91;;;28.00;47.33